Time;durP1;ratioP1;P1;durP2;ratioP2;P2;SDS_P1;SDS_P2;PMS_P1;PMS_P2;Temp;Humidity;BMP_temperature;BMP_pressure;BME280_temperature;BME280_humidity;BME280_pressure;Samples;Min_cycle;Max_cycle;Signal;HPM_P1;HPM_P2
2022/05/16 00:00:54;;;;;;;459.55;440.00;;;16.90;99.90;;;16.19;100.00;100316.81;4980885;28;20219;-80
2022/05/16 00:03:22;;;;;;;486.58;466.05;;;16.70;99.90;;;16.59;100.00;100329.50;4975668;28;20201;-78
2022/05/16 00:05:51;;;;;;;458.23;438.63;;;16.70;99.90;;;16.61;100.00;100344.59;4972974;28;20240;-79
2022/05/16 00:08:19;;;;;;;426.10;407.60;;;16.80;99.90;;;16.77;96.84;100306.97;4949645;28;20646;-79
2022/05/16 00:10:47;;;;;;;456.13;436.85;;;16.80;99.90;;;16.80;98.11;100305.13;4954346;28;20233;-79
2022/05/16 00:13:15;;;;;;;425.92;407.80;;;16.90;99.90;;;16.44;100.00;100325.31;4974397;28;20212;-80
2022/05/16 00:15:43;;;;;;;444.40;425.35;;;16.80;99.90;;;16.45;100.00;100304.84;4972954;28;20205;-79
2022/05/16 00:18:11;;;;;;;451.38;432.30;;;16.80;99.90;;;16.67;96.95;100290.22;4971084;28;20212;-78
2022/05/16 00:20:39;;;;;;;451.90;432.45;;;16.80;99.90;;;16.77;97.90;100310.53;4971074;28;20205;-79
2022/05/16 00:23:07;;;;;;;439.67;420.42;;;16.80;99.90;;;16.82;98.63;100316.66;4970498;28;20225;-80
2022/05/16 00:25:35;;;;;;;423.60;405.73;;;16.80;99.90;;;16.46;100.00;100331.50;4955267;28;20230;-80
2022/05/16 00:28:03;;;;;;;497.88;476.27;;;16.80;99.90;;;16.35;100.00;100352.16;4974930;28;20205;-79
2022/05/16 00:30:31;;;;;;;420.88;403.33;;;16.70;99.90;;;16.27;100.00;100341.59;4975742;28;20236;-79
2022/05/16 00:33:00;;;;;;;411.20;393.88;;;16.60;99.90;;;16.33;99.05;100314.81;4968552;28;20206;-79
2022/05/16 00:35:28;;;;;;;415.00;397.23;;;16.60;99.90;;;16.36;97.36;100297.88;4968112;28;20213;-78
2022/05/16 00:37:55;;;;;;;409.58;392.30;;;16.50;99.90;;;16.50;94.70;100289.63;4973246;28;20206;-78
2022/05/16 00:40:23;;;;;;;399.65;383.23;;;16.60;99.90;;;16.57;94.54;100299.28;4973186;28;20225;-80
2022/05/16 00:43:01;;;;;;;402.33;385.05;;;16.50;99.90;;;16.54;93.73;100280.66;4973771;28;20218;-79
2022/05/16 00:45:29;;;;;;;400.25;383.63;;;16.60;99.90;;;16.50;92.81;100254.91;4943787;28;20209;-79
2022/05/16 00:47:57;;;;;;;382.02;366.17;;;16.60;99.90;;;16.63;92.11;100254.66;4969922;28;20201;-78
2022/05/16 00:50:27;;;;;;;372.55;356.73;;;16.50;99.90;;;16.60;94.97;100283.22;4969178;28;20214;-79
2022/05/16 00:52:56;;;;;;;413.88;396.67;;;16.50;99.90;;;16.49;96.59;100295.88;4970530;28;20205;-78
2022/05/16 00:55:36;;;;;;;413.15;395.92;;;16.50;99.90;;;16.46;94.03;100277.22;4940601;28;20212;-79
2022/05/16 00:58:12;;;;;;;420.38;402.83;;;16.50;99.90;;;16.50;93.31;100257.59;4960259;28;20216;-80
2022/05/16 01:00:42;;;;;;;466.20;446.15;;;16.50;99.90;;;16.56;92.68;100254.81;4972223;28;20212;-79
2022/05/16 01:06:05;;;;;;;521.90;497.42;;;16.50;99.90;;;16.93;91.39;100281.78;4956580;28;20221;-80
2022/05/16 01:08:39;;;;;;;375.02;359.52;;;16.60;99.90;;;16.97;90.30;100271.91;4975878;28;20213;-83
2022/05/16 01:11:10;;;;;;;350.02;335.65;;;16.70;99.90;;;16.81;94.07;100288.19;4967242;28;20236;-78
2022/05/16 01:13:38;;;;;;;335.10;320.98;;;16.70;99.90;;;16.99;89.76;100262.06;4962760;28;20212;-79
2022/05/16 01:16:06;;;;;;;319.77;306.90;;;16.80;99.90;;;16.63;98.00;100310.72;4976606;28;20233;-79
2022/05/16 01:18:34;;;;;;;309.73;297.27;;;16.70;99.90;;;16.72;93.89;100275.00;4973495;28;20210;-79
2022/05/16 01:21:16;;;;;;;310.58;298.05;;;16.60;99.90;;;17.04;90.34;100281.56;4978557;28;20221;-79
2022/05/16 01:24:02;;;;;;;303.65;291.42;;;16.70;99.90;;;16.92;97.79;100336.09;4968993;28;20206;-79
2022/05/16 01:26:32;;;;;;;302.63;290.40;;;16.80;99.90;;;16.87;95.76;100333.47;4948119;28;20241;-79
2022/05/16 01:29:01;;;;;;;296.60;284.88;;;16.70;99.90;;;17.20;89.61;100291.91;4978976;28;20209;-79
2022/05/16 01:31:31;;;;;;;290.90;278.98;;;16.80;99.90;;;17.52;86.13;100283.22;4976076;28;20252;-79
2022/05/16 01:33:59;;;;;;;289.23;277.33;;;16.90;99.90;;;17.50;86.32;100254.75;4975592;28;20216;-80
2022/05/16 01:36:28;;;;;;;292.85;281.05;;;16.90;99.90;;;17.57;85.78;100256.38;4982778;28;20229;-79
2022/05/16 01:38:56;;;;;;;292.45;280.77;;;17.00;99.90;;;17.76;84.18;100235.47;4978308;28;20209;-78
2022/05/16 01:41:26;;;;;;;286.75;275.13;;;17.10;99.90;;;17.73;82.98;100208.78;4942094;28;20678;-79
2022/05/16 01:43:58;;;;;;;279.75;268.10;;;17.20;99.90;;;17.59;85.65;100219.78;4975789;28;20208;-79
2022/05/16 01:46:32;;;;;;;279.60;268.45;;;17.20;99.90;;;17.48;88.05;100236.06;4969004;28;20728;-78
2022/05/16 01:49:00;;;;;;;255.63;245.30;;;17.20;99.90;;;17.40;88.96;100240.69;4969581;28;20650;-79
2022/05/16 01:51:28;;;;;;;257.27;247.02;;;17.20;99.90;;;17.39;88.10;100220.22;4972488;28;20228;-78
2022/05/16 01:53:57;;;;;;;254.48;243.68;;;17.20;99.90;;;17.20;90.11;100229.56;4956148;28;20208;-79
2022/05/16 01:56:25;;;;;;;297.20;284.65;;;17.20;99.90;;;16.94;95.20;100265.72;4976321;28;20225;-78
2022/05/16 01:58:53;;;;;;;285.10;273.70;;;17.00;99.90;;;17.03;93.19;100258.44;4973410;28;20216;-78
2022/05/16 02:01:21;;;;;;;280.52;268.90;;;17.00;99.90;;;17.10;91.40;100241.34;4960099;28;20213;-80
2022/05/16 02:03:49;;;;;;;256.23;245.85;;;17.00;99.90;;;17.12;90.92;100237.75;4970925;28;20205;-81
2022/05/16 02:06:18;;;;;;;232.55;222.88;;;17.00;99.90;;;17.08;94.33;100269.91;4974035;28;20971;-79
2022/05/16 02:08:49;;;;;;;259.35;248.88;;;17.00;99.90;;;16.97;95.00;100283.47;4970009;28;20210;-79
2022/05/16 02:11:17;;;;;;;227.73;218.15;;;16.90;99.90;;;16.85;94.69;100262.31;4979924;28;20221;-79
2022/05/16 02:13:46;;;;;;;243.93;234.30;;;16.90;99.90;;;16.61;99.27;100283.19;4965160;28;20212;-80
2022/05/16 02:16:14;;;;;;;261.70;250.55;;;16.90;99.90;;;16.32;100.00;100310.38;4974508;28;20225;-79
2022/05/16 02:18:43;;;;;;;221.15;212.35;;;16.70;99.90;;;16.57;99.64;100326.88;4981061;28;20594;-78
2022/05/16 02:26:47;;;;;;;231.77;222.30;;;16.30;99.90;;;16.64;97.31;100339.19;4973000;28;20234;-79
2022/05/16 02:29:18;;;;;;;242.00;232.40;;;16.60;99.90;;;16.77;95.11;100318.53;4974252;28;20794;-79
2022/05/16 02:31:46;;;;;;;213.25;204.75;;;16.60;99.90;;;16.40;100.00;100373.44;4978402;28;20224;-79
2022/05/16 02:34:16;;;;;;;248.25;238.20;;;16.50;99.90;;;16.60;100.00;100373.97;4975682;28;20201;-79
2022/05/16 02:36:44;;;;;;;246.13;236.20;;;16.60;99.90;;;16.41;100.00;100389.41;4952899;28;20229;-78
2022/05/16 02:39:14;;;;;;;253.27;243.07;;;16.50;99.90;;;16.46;100.00;100386.66;4975173;28;20593;-78
2022/05/16 02:41:43;;;;;;;268.98;258.13;;;16.50;99.90;;;16.39;100.00;100393.00;4977619;28;20225;-79
2022/05/16 02:44:11;;;;;;;271.48;260.05;;;16.50;99.90;;;16.32;100.00;100386.88;4975422;28;20201;-79
2022/05/16 02:46:40;;;;;;;249.90;239.32;;;16.40;99.90;;;16.06;100.00;100386.38;4970074;28;20225;-79
2022/05/16 02:49:08;;;;;;;255.93;245.18;;;16.30;99.90;;;16.11;100.00;100398.75;4979290;28;20201;-79
2022/05/16 02:51:37;;;;;;;268.33;257.42;;;16.30;99.90;;;15.89;100.00;100387.50;4979520;28;20213;-79
2022/05/16 02:54:05;;;;;;;251.23;241.57;;;16.20;99.90;;;15.88;100.00;100387.53;4980388;28;20646;-79
2022/05/16 02:56:33;;;;;;;268.05;257.00;;;16.10;99.90;;;15.88;100.00;100407.06;4972069;28;20221;-80
2022/05/16 02:59:01;;;;;;;265.88;255.38;;;16.00;99.90;;;15.89;100.00;100413.28;4973043;28;20201;-79
2022/05/16 03:01:29;;;;;;;256.27;246.35;;;16.00;99.90;;;16.07;100.00;100438.84;4975283;28;20217;-79
2022/05/16 03:03:57;;;;;;;247.55;238.00;;;16.00;99.90;;;16.09;100.00;100437.03;4975864;28;20208;-79
2022/05/16 03:06:25;;;;;;;256.52;246.52;;;16.10;99.90;;;15.88;100.00;100431.06;4955845;28;20240;-78
2022/05/16 03:08:53;;;;;;;268.10;257.27;;;16.10;99.90;;;15.90;100.00;100439.06;4976492;28;20227;-79
2022/05/16 03:11:22;;;;;;;274.77;264.02;;;16.00;99.90;;;15.74;100.00;100441.03;4970530;28;20216;-79
2022/05/16 03:13:50;;;;;;;271.83;259.30;;;16.00;99.90;;;16.03;100.00;100448.66;4973749;28;20236;-78
2022/05/16 03:16:18;;;;;;;266.10;255.30;;;16.00;99.90;;;15.85;100.00;100451.56;4971624;28;20729;-79
2022/05/16 03:18:46;;;;;;;266.58;255.50;;;16.00;99.90;;;15.89;100.00;100454.19;4970896;28;20209;-79
2022/05/16 03:21:15;;;;;;;297.15;284.98;;;16.00;99.90;;;15.98;100.00;100443.38;4968339;28;20209;-79
2022/05/16 03:23:43;;;;;;;295.65;283.02;;;15.90;99.90;;;16.01;100.00;100458.47;4958921;28;20209;-79
2022/05/16 03:26:12;;;;;;;284.52;272.48;;;15.90;99.90;;;15.89;100.00;100459.50;4971594;28;20221;-79
2022/05/16 03:28:41;;;;;;;294.25;282.13;;;15.90;99.90;;;15.85;100.00;100454.22;4975742;28;20221;-78
2022/05/16 03:31:09;;;;;;;288.50;276.38;;;15.90;99.90;;;15.64;100.00;100471.38;4963869;28;20685;-80
2022/05/16 03:33:37;;;;;;;299.52;287.48;;;15.90;99.90;;;15.65;100.00;100489.13;4954000;28;20248;-79
2022/05/16 03:36:06;;;;;;;292.42;280.27;;;15.80;99.90;;;15.65;100.00;100492.66;4977361;28;20224;-79
2022/05/16 03:41:21;;;;;;;280.45;269.67;;;15.70;99.90;;;15.50;100.00;100486.56;4977526;28;20217;-79
2022/05/16 03:43:50;;;;;;;292.95;281.15;;;15.70;99.90;;;15.50;100.00;100503.44;4975841;28;20205;-79
2022/05/16 03:46:18;;;;;;;282.63;271.83;;;15.70;99.90;;;15.53;100.00;100524.72;4975628;28;20236;-79
2022/05/16 03:48:46;;;;;;;307.48;295.25;;;15.70;99.90;;;15.55;100.00;100519.38;4965023;28;20221;-79
2022/05/16 03:51:14;;;;;;;300.80;289.02;;;15.60;99.90;;;15.52;100.00;100530.94;4969807;28;20228;-79
2022/05/16 03:53:48;;;;;;;298.33;286.48;;;15.70;99.90;;;15.44;100.00;100540.81;4972440;28;20244;-79
2022/05/16 03:56:21;;;;;;;307.08;295.02;;;15.70;99.90;;;15.44;100.00;100540.81;4952471;28;20232;-79
2022/05/16 03:58:50;;;;;;;300.27;288.67;;;15.60;99.90;;;15.54;100.00;100560.25;4973331;28;20229;-79
2022/05/16 04:01:21;;;;;;;308.17;296.13;;;15.60;99.90;;;15.33;100.00;100554.22;4977527;28;20201;-79
2022/05/16 04:03:50;;;;;;;314.20;301.70;;;15.60;99.90;;;15.20;100.00;100538.34;4970517;28;20674;-78
2022/05/16 04:06:19;;;;;;;309.27;296.75;;;15.50;99.90;;;15.36;100.00;100572.84;4970069;28;20706;-79
2022/05/16 04:08:47;;;;;;;311.73;299.45;;;15.50;99.90;;;15.34;100.00;100568.44;4977378;28;20212;-79
2022/05/16 04:11:17;;;;;;;323.67;310.73;;;15.50;99.90;;;15.51;100.00;100582.50;4973137;28;20208;-78
2022/05/16 04:13:46;;;;;;;301.02;289.10;;;15.50;99.90;;;15.50;100.00;100599.38;4976404;28;20229;-79
2022/05/16 04:16:15;;;;;;;295.38;283.25;;;15.60;99.90;;;15.43;100.00;100600.31;4979397;28;20220;-79
2022/05/16 04:18:46;;;;;;;302.58;290.63;;;15.50;99.90;;;15.24;100.00;100578.28;4978294;28;20216;-79
2022/05/16 04:21:14;;;;;;;284.38;272.75;;;15.40;99.90;;;15.27;100.00;100580.91;4963097;28;20625;-79
2022/05/16 04:23:42;;;;;;;306.20;294.30;;;15.40;99.90;;;15.41;100.00;100595.91;4949683;28;20209;-79
2022/05/16 04:26:10;;;;;;;295.25;283.58;;;15.40;99.90;;;15.55;100.00;100615.34;4969450;28;20224;-80
2022/05/16 04:28:38;;;;;;;292.42;280.92;;;15.50;99.90;;;15.70;100.00;100593.06;4952027;28;20326;-79
2022/05/16 04:31:06;;;;;;;301.15;289.45;;;15.50;99.90;;;15.71;100.00;100601.03;4972831;28;20205;-80
2022/05/16 04:33:35;;;;;;;322.35;309.73;;;15.60;99.90;;;15.76;100.00;100603.66;4970736;28;20244;-80
2022/05/16 04:36:03;;;;;;;307.67;295.05;;;15.70;99.90;;;15.78;100.00;100601.88;4974935;28;20228;-81
2022/05/16 04:38:31;;;;;;;314.95;302.58;;;15.60;99.90;;;15.84;100.00;100585.81;4993071;28;20220;-80
2022/05/16 04:43:47;;;;;;;290.95;279.70;;;15.70;99.90;;;15.92;100.00;100590.16;4977241;28;20778;-81
2022/05/16 04:46:15;;;;;;;310.95;296.88;;;15.80;99.90;;;15.95;100.00;100591.91;4975769;28;20236;-81
2022/05/16 04:48:43;;;;;;;302.25;290.20;;;15.80;99.90;;;15.96;100.00;100589.22;4977346;28;20553;-80
2022/05/16 04:51:12;;;;;;;294.20;282.85;;;15.80;99.90;;;15.95;100.00;100594.56;4960510;28;20216;-80
2022/05/16 04:53:40;;;;;;;293.45;282.05;;;15.90;99.90;;;15.98;100.00;100603.44;4975551;28;20237;-81
2022/05/16 04:56:09;;;;;;;304.15;291.70;;;15.90;99.90;;;16.07;100.00;100626.47;4975932;28;20233;-80
2022/05/16 04:58:37;;;;;;;295.30;283.73;;;15.90;99.90;;;16.09;100.00;100615.78;4964140;28;20218;-80
2022/05/16 05:01:05;;;;;;;311.55;299.27;;;16.00;99.90;;;16.10;100.00;100613.09;4966459;28;20212;-80
2022/05/16 05:03:34;;;;;;;303.70;292.00;;;16.00;99.90;;;16.17;100.00;100625.47;4979736;28;20221;-82
2022/05/16 05:06:03;;;;;;;304.48;292.05;;;16.00;99.90;;;16.28;100.00;100633.34;4976815;28;20600;-80
2022/05/16 05:08:31;;;;;;;299.88;287.83;;;16.10;99.90;;;16.31;100.00;100636.88;4976001;28;20216;-80
2022/05/16 05:16:33;;;;;;;308.08;295.63;;;16.20;99.90;;;16.48;100.00;100655.34;4976344;28;20240;-82
2022/05/16 05:19:01;;;;;;;324.98;312.05;;;16.20;99.90;;;16.48;100.00;100657.16;4960240;28;20584;-80
2022/05/16 05:21:30;;;;;;;317.95;305.17;;;16.20;99.90;;;16.56;100.00;100642.81;4977047;28;20206;-80
2022/05/16 05:24:00;;;;;;;288.00;276.55;;;16.30;99.90;;;16.58;100.00;100638.31;4976602;28;20209;-81
2022/05/16 05:26:28;;;;;;;295.73;284.17;;;16.40;99.90;;;16.69;100.00;100637.34;4969795;28;20229;-80
2022/05/16 05:28:57;;;;;;;290.52;279.10;;;16.40;99.90;;;16.74;100.00;100651.53;4975950;28;20272;-80
2022/05/16 05:31:25;;;;;;;291.65;280.15;;;16.50;99.90;;;16.81;100.00;100659.44;4976219;28;20205;-80
2022/05/16 05:33:55;;;;;;;286.95;275.70;;;16.50;99.90;;;16.82;100.00;100653.19;4976119;28;20249;-79
2022/05/16 05:36:25;;;;;;;277.77;267.15;;;16.60;99.90;;;16.83;100.00;100664.75;4974941;28;20229;-79
2022/05/16 05:38:53;;;;;;;277.73;267.00;;;16.60;99.90;;;16.83;100.00;100633.59;4976006;28;20220;-80
2022/05/16 05:41:23;;;;;;;280.15;269.15;;;16.70;99.90;;;16.88;100.00;100614.81;4975499;28;20217;-81
2022/05/16 05:43:51;;;;;;;270.40;259.80;;;16.70;99.90;;;16.91;100.00;100621.03;4976359;28;20216;-80
2022/05/16 05:46:19;;;;;;;295.00;283.42;;;16.80;99.90;;;17.00;100.00;100620.03;4974995;28;20230;-80
2022/05/16 05:48:47;;;;;;;283.73;272.48;;;16.80;99.90;;;17.05;100.00;100636.88;4975858;28;20209;-80
2022/05/16 05:51:16;;;;;;;266.60;256.15;;;16.90;99.90;;;17.03;100.00;100637.81;4976051;28;20208;-80
2022/05/16 05:53:44;;;;;;;284.17;273.10;;;16.90;99.90;;;17.07;100.00;100656.44;4975314;28;20233;-80
2022/05/16 05:56:13;;;;;;;259.17;249.20;;;16.90;99.90;;;17.06;100.00;100661.81;4958084;28;20232;-79
2022/05/16 05:58:42;;;;;;;259.95;249.63;;;17.00;99.90;;;17.09;100.00;100659.09;4974178;28;20205;-80
2022/05/16 06:01:10;;;;;;;261.75;251.25;;;17.00;99.90;;;17.13;100.00;100653.69;4975335;28;20213;-79
2022/05/16 06:03:39;;;;;;;252.95;242.75;;;17.00;99.90;;;17.19;100.00;100658.06;4975059;28;20205;-79
2022/05/16 06:06:07;;;;;;;248.25;238.55;;;17.10;99.90;;;17.25;100.00;100676.69;4974238;28;20233;-79
2022/05/16 06:08:35;;;;;;;259.45;249.30;;;17.10;99.90;;;17.38;100.00;100680.94;4974823;28;20222;-79
2022/05/16 06:11:03;;;;;;;248.77;239.18;;;17.20;99.90;;;17.41;100.00;100667.53;4974307;28;20209;-79
2022/05/16 06:13:31;;;;;;;256.15;245.93;;;17.30;99.90;;;17.55;100.00;100678.00;4974552;28;20817;-79
2022/05/16 06:15:59;;;;;;;256.10;245.98;;;17.30;99.90;;;17.61;100.00;100677.91;4974269;28;20228;-79
2022/05/16 06:18:27;;;;;;;250.10;240.13;;;17.40;99.90;;;17.72;100.00;100699.16;4974089;28;20213;-79
2022/05/16 06:20:55;;;;;;;241.93;231.90;;;17.50;99.90;;;17.71;100.00;100684.91;4974640;28;20197;-79
2022/05/16 06:23:23;;;;;;;248.95;238.95;;;17.60;99.90;;;17.66;100.00;100660.03;4974571;28;20218;-79
2022/05/16 06:25:51;;;;;;;260.67;250.27;;;17.60;99.90;;;17.77;100.00;100658.06;4974449;28;20232;-80
2022/05/16 06:28:24;;;;;;;247.57;237.40;;;17.70;99.90;;;17.85;100.00;100677.53;4974023;28;20210;-79
2022/05/16 06:30:53;;;;;;;258.67;248.07;;;17.70;99.90;;;17.90;100.00;100674.78;4972791;28;20205;-79
2022/05/16 06:33:25;;;;;;;236.10;226.30;;;17.80;99.90;;;18.00;100.00;100703.16;4974188;28;20193;-80
2022/05/16 06:35:54;;;;;;;234.38;224.85;;;17.90;99.90;;;18.21;100.00;100724.22;4975296;28;20232;-80
2022/05/16 06:38:30;;;;;;;221.23;212.18;;;17.90;99.90;;;18.20;100.00;100689.41;4955484;29;20214;-79
2022/05/16 06:41:00;;;;;;;238.30;228.38;;;18.10;99.90;;;18.35;100.00;100693.66;4964866;28;20219;-79
2022/05/16 06:43:31;;;;;;;233.70;223.63;;;18.20;99.90;;;18.55;100.00;100695.03;4973696;28;20220;-81
2022/05/16 06:45:59;;;;;;;215.95;206.70;;;18.30;99.90;;;18.59;100.00;100673.53;4973523;28;20717;-79
2022/05/16 06:48:29;;;;;;;247.48;237.23;;;18.40;99.90;;;18.59;100.00;100662.81;4973705;28;20690;-79
2022/05/16 06:50:58;;;;;;;234.40;224.10;;;18.50;99.90;;;18.50;100.00;100654.06;4973686;28;20243;-79
2022/05/16 06:53:31;;;;;;;230.07;220.23;;;18.50;99.90;;;18.49;100.00;100663.00;4968147;28;20217;-80
2022/05/16 06:56:00;;;;;;;230.15;220.10;;;18.50;99.90;;;18.57;100.00;100673.56;4965173;28;20256;-81
2022/05/16 06:58:28;;;;;;;211.27;202.10;;;18.60;99.90;;;18.66;100.00;100677.91;4973976;28;20201;-80
2022/05/16 07:00:56;;;;;;;202.65;194.48;;;18.70;99.90;;;18.56;100.00;100677.16;4971806;28;20205;-80
2022/05/16 07:03:24;;;;;;;219.35;210.00;;;18.70;99.90;;;18.66;100.00;100675.22;4974145;28;20205;-80
2022/05/16 07:05:52;;;;;;;215.20;205.73;;;18.80;99.90;;;18.59;100.00;100665.50;4967882;28;20242;-80
2022/05/16 07:08:22;;;;;;;225.65;215.93;;;18.70;99.90;;;19.04;100.00;100720.84;4956732;28;20206;-80
2022/05/16 07:10:50;;;;;;;217.20;207.93;;;18.90;99.90;;;19.45;100.00;100725.31;4980266;28;20597;-80
2022/05/16 07:13:24;;;;;;;202.32;193.50;;;19.10;99.90;;;19.45;100.00;100689.56;4974455;28;20217;-80
2022/05/16 07:15:54;;;;;;;199.15;190.27;;;19.20;99.90;;;19.69;100.00;100694.41;4957732;28;20244;-80
2022/05/16 07:18:23;;;;;;;205.23;195.02;;;19.40;99.90;;;19.86;100.00;100695.78;4956023;28;20217;-80
2022/05/16 07:20:51;;;;;;;199.48;190.73;;;19.60;99.90;;;19.95;100.00;100669.59;4964817;28;20213;-80
2022/05/16 07:23:20;;;;;;;212.18;202.32;;;19.70;99.90;;;20.29;99.94;100671.41;4973444;28;20220;-80
2022/05/16 07:28:35;;;;;;;194.15;185.57;;;20.20;99.90;;;20.89;96.21;100619.56;4954508;29;20210;-80
2022/05/16 07:31:04;;;;;;;217.77;208.00;;;20.50;99.90;;;21.42;96.37;100646.63;4966151;28;20713;-80
2022/05/16 07:33:34;;;;;;;198.65;189.95;;;20.70;99.90;;;21.53;92.77;100587.97;4968355;28;20209;-80
2022/05/16 07:36:03;;;;;;;203.75;194.60;;;20.90;99.90;;;22.05;92.00;100589.75;4960676;28;20237;-80
2022/05/16 07:38:31;;;;;;;184.38;175.73;;;21.20;99.90;;;22.40;92.86;100583.13;4969276;28;20213;-80
2022/05/16 07:40:59;;;;;;;174.30;166.18;;;21.40;99.90;;;22.57;89.17;100533.97;4970725;28;20227;-80
2022/05/16 07:43:28;;;;;;;186.07;177.60;;;21.70;99.90;;;22.97;88.36;100530.59;4964133;28;20210;-80
2022/05/16 07:45:56;;;;;;;177.02;167.68;;;22.00;99.90;;;22.96;86.14;100475.78;4972666;28;20228;-80
2022/05/16 07:48:24;;;;;;;158.60;151.07;;;22.30;99.90;;;23.16;84.82;100469.56;4973689;28;20205;-80
2022/05/16 07:50:53;;;;;;;161.25;153.57;;;22.40;99.90;;;23.37;84.28;100448.88;4979134;28;20209;-81
2022/05/16 07:53:21;;;;;;;155.35;147.82;;;22.60;99.90;;;23.72;85.19;100452.78;4988990;28;20204;-81
2022/05/16 07:55:54;;;;;;;147.25;140.48;;;22.90;99.90;;;23.64;82.38;100403.63;4965356;28;20236;-82
2022/05/16 07:58:25;;;;;;;148.57;141.48;;;23.10;99.90;;;23.92;81.43;100397.84;4956582;28;20208;-81
2022/05/16 08:00:56;;;;;;;139.82;133.25;;;23.30;99.90;;;23.91;83.54;100388.88;4974070;28;20641;-80
2022/05/16 08:03:28;;;;;;;140.88;134.02;;;23.40;99.90;;;24.16;82.42;100387.72;4955605;28;20216;-79
2022/05/16 08:05:57;;;;;;;143.18;136.52;;;23.60;99.90;;;24.30;80.43;100354.66;4973508;28;20224;-81
2022/05/16 08:11:14;;;;;;;207.52;197.70;;;23.90;99.90;;;24.34;81.93;100348.16;4973854;28;20196;-80
2022/05/16 08:13:43;;;;;;;215.68;205.38;;;24.00;99.90;;;24.68;82.11;100367.16;4973196;28;20204;-81
2022/05/16 08:16:11;;;;;;;198.77;189.48;;;24.20;99.90;;;24.81;81.21;100354.78;4972216;28;20243;-80
2022/05/16 08:18:41;;;;;;;192.35;183.15;;;24.30;99.90;;;25.02;78.00;100303.25;4973812;28;20204;-81
2022/05/16 08:21:10;;;;;;;185.43;176.57;;;24.50;99.90;;;25.02;77.80;100271.66;4972845;28;20208;-80
2022/05/16 08:23:40;;;;;;;189.23;180.18;;;24.70;99.90;;;25.13;76.50;100255.75;4962796;28;20205;-80
2022/05/16 08:26:08;;;;;;;204.85;195.05;;;24.80;99.90;;;25.28;75.24;100235.09;4974080;28;20228;-80
2022/05/16 08:28:36;;;;;;;197.40;187.77;;;25.00;99.90;;;25.25;73.53;100177.53;4974139;28;20209;-80
2022/05/16 08:31:04;;;;;;;202.18;192.02;;;25.00;99.90;;;25.36;74.82;100185.94;4972440;28;20216;-79
2022/05/16 08:33:38;;;;;;;201.70;191.77;;;25.10;99.90;;;25.75;74.70;100220.75;4974326;28;20211;-81
2022/05/16 08:42:05;;;;;;;198.27;188.18;;;25.70;99.90;;;26.12;73.82;100157.19;4974171;28;20213;-81
2022/05/16 08:44:51;;;;;;;180.55;171.43;;;26.00;99.90;;;26.45;76.90;100220.28;4957806;28;20220;-80
2022/05/16 08:47:30;;;;;;;174.63;165.82;;;26.10;99.90;;;26.32;72.36;100134.31;4954595;29;20229;-80
2022/05/16 08:50:06;;;;;;;174.55;165.82;;;26.30;99.90;;;26.52;74.04;100166.53;4955056;29;20723;-80
2022/05/16 08:52:43;;;;;;;188.73;178.95;;;26.30;99.90;;;26.55;71.66;100111.25;4948323;29;20213;-82
2022/05/16 08:55:34;;;;;;;182.20;172.48;;;26.50;99.90;;;26.44;71.36;100071.22;4937787;29;20201;-81
2022/05/16 08:58:10;;;;;;;172.05;163.60;;;26.60;99.90;;;26.67;71.60;100096.91;4966296;28;20209;-80
2022/05/16 09:00:48;;;;;;;177.68;168.63;;;26.70;99.90;;;26.52;70.07;100014.69;4955851;28;20208;-79
2022/05/16 09:03:23;;;;;;;169.88;161.35;;;26.80;99.90;;;26.63;70.82;100032.97;4940987;28;20204;-80
2022/05/16 09:06:19;;;;;;;171.57;162.73;;;26.70;99.90;;;27.19;71.62;100086.34;4953072;28;20259;-80
2022/05/16 09:09:10;;;;;;;159.95;151.88;;;27.10;99.90;;;26.68;71.30;99987.44;4921127;29;20216;-80
2022/05/16 09:11:58;;;;;;;148.75;141.25;;;27.00;99.90;;;26.89;72.47;100039.44;4959380;28;20232;-81
2022/05/16 09:15:02;;;;;;;141.77;134.57;;;27.00;99.90;;;27.32;72.85;100078.28;4953051;29;20210;-80
2022/05/16 09:17:48;;;;;;;142.43;135.10;;;27.30;99.90;;;26.94;69.77;99964.03;4965563;28;20224;-81
2022/05/16 09:20:49;;;;;;;144.10;136.85;;;27.30;99.90;;;27.33;69.47;100004.00;4972168;28;20216;-81
2022/05/16 09:23:38;;;;;;;150.85;142.82;;;27.40;99.90;;;27.54;69.49;99994.41;4975924;28;20196;-80
2022/05/16 09:26:14;;;;;;;141.35;134.13;;;27.60;99.90;;;27.48;68.97;99966.78;4958252;28;20259;-80
2022/05/16 09:28:47;;;;;;;155.63;147.40;;;27.70;99.90;;;27.39;68.35;99942.00;4975640;28;20226;-80
2022/05/16 09:31:26;;;;;;;144.55;137.40;;;27.80;99.90;;;27.24;68.90;99910.44;4970235;28;20212;-80
2022/05/16 09:33:59;;;;;;;153.25;144.73;;;27.70;99.90;;;27.63;68.84;99954.91;4976398;28;20223;-79
2022/05/16 09:36:41;;;;;;;156.52;148.27;;;27.90;99.90;;;27.93;67.38;99950.06;4959535;28;20235;-80
2022/05/16 09:39:11;;;;;;;148.85;141.15;;;28.20;99.90;;;27.81;69.10;99936.47;4983505;28;20208;-80
2022/05/16 09:42:03;;;;;;;149.88;142.10;;;28.30;99.90;;;28.20;67.99;99960.81;4963940;28;20221;-80
2022/05/16 09:44:42;;;;;;;172.73;163.23;;;28.50;99.90;;;28.59;67.49;99978.00;4973583;28;20211;-81
2022/05/16 09:47:26;;;;;;;192.40;182.02;;;28.70;99.90;;;28.74;66.89;99954.25;4995678;28;20243;-81
2022/05/16 09:50:21;;;;;;;187.95;177.27;;;29.00;99.90;;;28.22;67.27;99860.97;4974787;28;20212;-80
2022/05/16 09:53:14;;;;;;;181.45;171.68;;;29.20;99.90;;;27.59;68.99;99850.13;4977063;28;20205;-80
2022/05/16 09:56:03;;;;;;;179.20;169.32;;;28.90;99.90;;;27.39;70.83;99846.09;4976164;28;20205;-80
2022/05/16 09:58:54;;;;;;;175.15;165.65;;;28.50;99.90;;;27.17;71.18;99833.13;4959188;28;20211;-80
2022/05/16 10:01:53;;;;;;;171.60;162.68;;;28.20;99.90;;;26.88;71.83;99834.22;4976771;28;20209;-80
2022/05/16 10:04:46;;;;;;;178.38;168.93;;;27.90;99.90;;;26.93;71.01;99856.47;4975940;28;20223;-80
2022/05/16 10:07:14;;;;;;;217.07;205.27;;;27.70;99.90;;;26.45;71.70;99813.53;4959002;28;20244;-82
2022/05/16 10:09:52;;;;;;;185.80;175.70;;;27.50;99.90;;;26.34;72.08;99840.50;4958876;28;20212;-81
2022/05/16 10:12:23;;;;;;;178.23;168.75;;;27.30;99.90;;;26.20;71.46;99821.53;4940816;29;20658;-80
2022/05/16 10:14:52;;;;;;;197.95;186.32;;;27.10;99.90;;;26.14;73.22;99865.28;4970062;28;20220;-80
2022/05/16 10:17:34;;;;;;;195.00;184.68;;;27.00;99.90;;;25.55;73.51;99807.56;4961594;28;20225;-79
2022/05/16 10:20:33;;;;;;;186.45;176.15;;;26.80;99.90;;;25.25;73.75;99814.88;4995309;28;20212;-81
2022/05/16 10:23:06;;;;;;;173.82;164.82;;;26.40;99.90;;;25.44;74.07;99875.06;4977656;28;20214;-81
2022/05/16 10:25:45;;;;;;;185.90;176.15;;;26.20;99.90;;;25.47;75.27;99896.53;4955350;29;20242;-81
2022/05/16 10:28:20;;;;;;;189.90;180.45;;;26.20;99.90;;;25.37;74.75;99881.81;4938873;28;20220;-80
2022/05/16 10:33:38;;;;;;;219.25;208.13;;;25.80;99.90;;;24.96;75.95;99882.41;4952193;28;20227;-81
2022/05/16 10:36:21;;;;;;;192.90;182.60;;;25.60;99.90;;;24.99;76.15;99890.38;4948147;28;20236;-83